sensor_id;sensor_type;location;lat;lon;timestamp;temperature;humidity
8736;DHT22;4404;49.308;12.178;2022-07-22T00:02:50;21.00;99.90
8736;DHT22;4404;49.308;12.178;2022-07-22T00:08:55;20.90;99.90
8736;DHT22;4404;49.308;12.178;2022-07-22T00:14:59;21.00;99.90
8736;DHT22;4404;49.308;12.178;2022-07-22T00:21:04;21.00;99.90
8736;DHT22;4404;49.308;12.178;2022-07-22T00:27:07;20.90;99.90
8736;DHT22;4404;49.308;12.178;2022-07-22T00:33:12;20.90;99.90
8736;DHT22;4404;49.308;12.178;2022-07-22T00:39:14;20.90;99.90
8736;DHT22;4404;49.308;12.178;2022-07-22T00:45:17;20.80;99.90
8736;DHT22;4404;49.308;12.178;2022-07-22T00:51:22;20.90;99.90
8736;DHT22;4404;49.308;12.178;2022-07-22T00:57:28;20.80;99.90
8736;DHT22;4404;49.308;12.178;2022-07-22T01:03:31;20.70;99.90
8736;DHT22;4404;49.308;12.178;2022-07-22T01:09:36;20.70;99.90
8736;DHT22;4404;49.308;12.178;2022-07-22T01:15:39;20.70;99.90
8736;DHT22;4404;49.308;12.178;2022-07-22T01:21:44;20.70;99.90
8736;DHT22;4404;49.308;12.178;2022-07-22T01:27:47;20.60;99.90
8736;DHT22;4404;49.308;12.178;2022-07-22T01:33:49;20.60;99.90
8736;DHT22;4404;49.308;12.178;2022-07-22T01:39:53;20.60;99.90
8736;DHT22;4404;49.308;12.178;2022-07-22T01:45:57;20.50;99.90
8736;DHT22;4404;49.308;12.178;2022-07-22T01:52:01;20.60;99.90
8736;DHT22;4404;49.308;12.178;2022-07-22T01:58:08;20.40;99.90
8736;DHT22;4404;49.308;12.178;2022-07-22T02:04:10;20.40;99.90
8736;DHT22;4404;49.308;12.178;2022-07-22T02:10:14;20.30;99.90
8736;DHT22;4404;49.308;12.178;2022-07-22T02:16:18;20.20;99.90
8736;DHT22;4404;49.308;12.178;2022-07-22T02:22:25;20.20;99.90
8736;DHT22;4404;49.308;12.178;2022-07-22T02:28:28;20.00;99.90
8736;DHT22;4404;49.308;12.178;2022-07-22T02:34:34;20.10;99.90
8736;DHT22;4404;49.308;12.178;2022-07-22T02:40:37;20.10;99.90
8736;DHT22;4404;49.308;12.178;2022-07-22T02:46:40;20.00;99.90
8736;DHT22;4404;49.308;12.178;2022-07-22T02:58:48;20.10;99.90
8736;DHT22;4404;49.308;12.178;2022-07-22T03:04:54;20.00;99.90
8736;DHT22;4404;49.308;12.178;2022-07-22T03:11:00;19.90;99.90
8736;DHT22;4404;49.308;12.178;2022-07-22T03:17:03;19.80;99.90
8736;DHT22;4404;49.308;12.178;2022-07-22T03:23:08;19.80;99.90
8736;DHT22;4404;49.308;12.178;2022-07-22T03:29:14;19.90;99.90
8736;DHT22;4404;49.308;12.178;2022-07-22T03:35:17;19.90;99.90
8736;DHT22;4404;49.308;12.178;2022-07-22T03:41:20;19.90;99.90
8736;DHT22;4404;49.308;12.178;2022-07-22T03:47:25;19.90;99.90
8736;DHT22;4404;49.308;12.178;2022-07-22T03:53:28;19.80;99.90
8736;DHT22;4404;49.308;12.178;2022-07-22T03:59:31;19.90;99.90
8736;DHT22;4404;49.308;12.178;2022-07-22T04:05:35;19.80;99.90
8736;DHT22;4404;49.308;12.178;2022-07-22T04:11:38;19.80;99.90
8736;DHT22;4404;49.308;12.178;2022-07-22T04:17:43;19.80;99.90
8736;DHT22;4404;49.308;12.178;2022-07-22T04:23:47;19.90;99.90
8736;DHT22;4404;49.308;12.178;2022-07-22T04:29:50;19.80;99.90
8736;DHT22;4404;49.308;12.178;2022-07-22T04:35:53;19.70;99.90
8736;DHT22;4404;49.308;12.178;2022-07-22T04:41:59;19.70;99.90
8736;DHT22;4404;49.308;12.178;2022-07-22T04:48:02;19.80;99.90
8736;DHT22;4404;49.308;12.178;2022-07-22T04:54:06;19.90;99.90
8736;DHT22;4404;49.308;12.178;2022-07-22T05:00:12;19.80;99.90
8736;DHT22;4404;49.308;12.178;2022-07-22T05:12:20;19.90;99.90
8736;DHT22;4404;49.308;12.178;2022-07-22T05:18:25;19.90;99.90
8736;DHT22;4404;49.308;12.178;2022-07-22T05:24:29;20.00;99.90
8736;DHT22;4404;49.308;12.178;2022-07-22T05:30:32;20.10;99.90
8736;DHT22;4404;49.308;12.178;2022-07-22T05:36:37;20.10;99.90
8736;DHT22;4404;49.308;12.178;2022-07-22T05:42:43;20.20;99.90
8736;DHT22;4404;49.308;12.178;2022-07-22T05:48:58;20.30;99.90
8736;DHT22;4404;49.308;12.178;2022-07-22T05:55:03;20.50;99.90
8736;DHT22;4404;49.308;12.178;2022-07-22T06:01:07;20.60;99.90
8736;DHT22;4404;49.308;12.178;2022-07-22T06:07:12;20.60;99.90
8736;DHT22;4404;49.308;12.178;2022-07-22T06:13:17;20.60;99.90
8736;DHT22;4404;49.308;12.178;2022-07-22T06:19:21;20.80;99.90
8736;DHT22;4404;49.308;12.178;2022-07-22T06:25:25;20.70;99.90
8736;DHT22;4404;49.308;12.178;2022-07-22T06:31:30;20.80;99.90
8736;DHT22;4404;49.308;12.178;2022-07-22T06:37:37;20.90;99.90
8736;DHT22;4404;49.308;12.178;2022-07-22T06:43:40;21.10;99.90
8736;DHT22;4404;49.308;12.178;2022-07-22T06:49:45;21.20;99.90
8736;DHT22;4404;49.308;12.178;2022-07-22T06:55:48;21.30;99.90
8736;DHT22;4404;49.308;12.178;2022-07-22T07:01:50;21.30;99.90
8736;DHT22;4404;49.308;12.178;2022-07-22T07:07:55;21.50;99.90
8736;DHT22;4404;49.308;12.178;2022-07-22T07:13:58;21.60;99.90
8736;DHT22;4404;49.308;12.178;2022-07-22T07:20:00;21.60;99.90
8736;DHT22;4404;49.308;12.178;2022-07-22T07:26:06;21.70;99.90
8736;DHT22;4404;49.308;12.178;2022-07-22T07:32:10;21.80;99.90
8736;DHT22;4404;49.308;12.178;2022-07-22T07:38:13;22.20;99.90
8736;DHT22;4404;49.308;12.178;2022-07-22T07:44:17;22.30;99.90
8736;DHT22;4404;49.308;12.178;2022-07-22T07:50:20;22.50;99.90
8736;DHT22;4404;49.308;12.178;2022-07-22T07:56:24;22.50;99.90
8736;DHT22;4404;49.308;12.178;2022-07-22T08:02:28;22.70;99.90
8736;DHT22;4404;49.308;12.178;2022-07-22T08:08:32;23.10;99.90
8736;DHT22;4404;49.308;12.178;2022-07-22T08:14:37;23.10;99.90
8736;DHT22;4404;49.308;12.178;2022-07-22T08:20:50;23.20;99.80
8736;DHT22;4404;49.308;12.178;2022-07-22T08:26:56;23.30;96.70
8736;DHT22;4404;49.308;12.178;2022-07-22T08:33:01;23.60;95.90
8736;DHT22;4404;49.308;12.178;2022-07-22T08:39:08;24.00;91.80
8736;DHT22;4404;49.308;12.178;2022-07-22T08:45:12;24.00;91.90
8736;DHT22;4404;49.308;12.178;2022-07-22T08:51:16;24.30;92.60
8736;DHT22;4404;49.308;12.178;2022-07-22T08:57:25;24.50;91.50
8736;DHT22;4404;49.308;12.178;2022-07-22T09:09:32;24.90;90.40
8736;DHT22;4404;49.308;12.178;2022-07-22T09:15:45;25.10;89.90
8736;DHT22;4404;49.308;12.178;2022-07-22T09:21:49;25.20;90.20
8736;DHT22;4404;49.308;12.178;2022-07-22T09:27:55;25.40;90.40
8736;DHT22;4404;49.308;12.178;2022-07-22T09:34:01;25.50;90.70
8736;DHT22;4404;49.308;12.178;2022-07-22T09:40:15;25.90;90.60
8736;DHT22;4404;49.308;12.178;2022-07-22T09:46:34;26.00;87.20
8736;DHT22;4404;49.308;12.178;2022-07-22T09:52:40;26.20;86.00
8736;DHT22;4404;49.308;12.178;2022-07-22T09:58:43;26.40;85.10
8736;DHT22;4404;49.308;12.178;2022-07-22T10:04:47;26.70;85.80
8736;DHT22;4404;49.308;12.178;2022-07-22T10:10:54;26.80;83.20
8736;DHT22;4404;49.308;12.178;2022-07-22T10:17:01;27.00;81.50
8736;DHT22;4404;49.308;12.178;2022-07-22T10:23:05;27.20;80.50
8736;DHT22;4404;49.308;12.178;2022-07-22T10:35:54;27.50;77.20
8736;DHT22;4404;49.308;12.178;2022-07-22T10:41:58;27.50;77.30
8736;DHT22;4404;49.308;12.178;2022-07-22T10:48:02;27.50;78.10
8736;DHT22;4404;49.308;12.178;2022-07-22T10:54:10;27.70;78.70
8736;DHT22;4404;49.308;12.178;2022-07-22T11:00:14;28.10;76.00
8736;DHT22;4404;49.308;12.178;2022-07-22T11:06:27;28.30;76.60
8736;DHT22;4404;49.308;12.178;2022-07-22T11:12:33;28.40;73.20
8736;DHT22;4404;49.308;12.178;2022-07-22T11:18:49;28.50;72.90
8736;DHT22;4404;49.308;12.178;2022-07-22T11:24:53;28.60;71.60
8736;DHT22;4404;49.308;12.178;2022-07-22T11:31:06;28.60;72.50
8736;DHT22;4404;49.308;12.178;2022-07-22T11:37:09;28.80;70.80
8736;DHT22;4404;49.308;12.178;2022-07-22T11:43:12;29.00;73.10
8736;DHT22;4404;49.308;12.178;2022-07-22T11:49:19;29.20;67.40
8736;DHT22;4404;49.308;12.178;2022-07-22T11:55:25;28.90;67.20
8736;DHT22;4404;49.308;12.178;2022-07-22T12:01:28;29.00;67.30
8736;DHT22;4404;49.308;12.178;2022-07-22T12:07:33;29.10;64.60
8736;DHT22;4404;49.308;12.178;2022-07-22T12:13:41;29.20;64.70
8736;DHT22;4404;49.308;12.178;2022-07-22T12:19:45;29.30;65.10
8736;DHT22;4404;49.308;12.178;2022-07-22T12:25:53;29.60;67.60
8736;DHT22;4404;49.308;12.178;2022-07-22T12:32:01;30.00;64.10
8736;DHT22;4404;49.308;12.178;2022-07-22T12:38:06;30.00;64.90
8736;DHT22;4404;49.308;12.178;2022-07-22T12:44:20;30.10;66.30
8736;DHT22;4404;49.308;12.178;2022-07-22T12:50:26;30.20;64.10
8736;DHT22;4404;49.308;12.178;2022-07-22T12:56:30;30.10;64.40
8736;DHT22;4404;49.308;12.178;2022-07-22T13:02:37;30.40;60.00
8736;DHT22;4404;49.308;12.178;2022-07-22T13:08:40;30.50;60.60
8736;DHT22;4404;49.308;12.178;2022-07-22T13:14:43;30.60;59.10
8736;DHT22;4404;49.308;12.178;2022-07-22T13:20:49;30.60;58.20
8736;DHT22;4404;49.308;12.178;2022-07-22T13:26:52;30.70;57.70
8736;DHT22;4404;49.308;12.178;2022-07-22T13:32:56;30.60;57.00
8736;DHT22;4404;49.308;12.178;2022-07-22T13:39:01;30.70;57.50
8736;DHT22;4404;49.308;12.178;2022-07-22T13:45:07;30.70;60.50
8736;DHT22;4404;49.308;12.178;2022-07-22T13:51:12;30.80;60.40
8736;DHT22;4404;49.308;12.178;2022-07-22T13:57:19;30.80;56.70
8736;DHT22;4404;49.308;12.178;2022-07-22T14:03:22;30.80;55.60
8736;DHT22;4404;49.308;12.178;2022-07-22T14:09:26;30.80;56.50
8736;DHT22;4404;49.308;12.178;2022-07-22T14:15:30;30.80;54.60
8736;DHT22;4404;49.308;12.178;2022-07-22T14:21:34;30.80;55.00
8736;DHT22;4404;49.308;12.178;2022-07-22T14:27:38;31.00;58.60
8736;DHT22;4404;49.308;12.178;2022-07-22T14:33:42;31.30;57.40
8736;DHT22;4404;49.308;12.178;2022-07-22T14:45:50;31.50;56.50
8736;DHT22;4404;49.308;12.178;2022-07-22T14:51:55;31.50;53.70
8736;DHT22;4404;49.308;12.178;2022-07-22T14:57:59;31.60;53.90
8736;DHT22;4404;49.308;12.178;2022-07-22T15:04:02;31.60;54.00
8736;DHT22;4404;49.308;12.178;2022-07-22T15:10:08;31.60;51.90
8736;DHT22;4404;49.308;12.178;2022-07-22T15:16:11;31.60;52.30
8736;DHT22;4404;49.308;12.178;2022-07-22T15:22:18;31.50;52.00
8736;DHT22;4404;49.308;12.178;2022-07-22T15:28:33;31.70;51.40
8736;DHT22;4404;49.308;12.178;2022-07-22T15:34:37;31.60;51.50
8736;DHT22;4404;49.308;12.178;2022-07-22T15:40:41;31.60;51.50
8736;DHT22;4404;49.308;12.178;2022-07-22T15:46:49;31.60;50.70
8736;DHT22;4404;49.308;12.178;2022-07-22T15:52:51;31.50;49.90
8736;DHT22;4404;49.308;12.178;2022-07-22T15:58:55;31.50;52.40
8736;DHT22;4404;49.308;12.178;2022-07-22T16:05:18;31.40;53.10
8736;DHT22;4404;49.308;12.178;2022-07-22T16:11:21;31.40;52.00
8736;DHT22;4404;49.308;12.178;2022-07-22T16:17:26;31.50;54.60
8736;DHT22;4404;49.308;12.178;2022-07-22T16:23:31;31.60;51.10
8736;DHT22;4404;49.308;12.178;2022-07-22T16:29:34;31.30;50.30
8736;DHT22;4404;49.308;12.178;2022-07-22T16:35:37;31.10;50.40
8736;DHT22;4404;49.308;12.178;2022-07-22T16:41:42;31.00;50.40
8736;DHT22;4404;49.308;12.178;2022-07-22T16:47:46;30.90;51.50
8736;DHT22;4404;49.308;12.178;2022-07-22T16:53:49;30.80;51.30
8736;DHT22;4404;49.308;12.178;2022-07-22T16:59:53;31.00;53.70
8736;DHT22;4404;49.308;12.178;2022-07-22T17:05:56;30.60;51.80
8736;DHT22;4404;49.308;12.178;2022-07-22T17:12:00;30.60;52.20
8736;DHT22;4404;49.308;12.178;2022-07-22T17:18:05;30.60;52.50
8736;DHT22;4404;49.308;12.178;2022-07-22T17:24:10;30.30;51.00
8736;DHT22;4404;49.308;12.178;2022-07-22T17:30:13;30.30;52.00
8736;DHT22;4404;49.308;12.178;2022-07-22T17:36:22;30.30;54.20
8736;DHT22;4404;49.308;12.178;2022-07-22T17:42:35;30.20;52.50
8736;DHT22;4404;49.308;12.178;2022-07-22T17:48:38;30.20;53.10
8736;DHT22;4404;49.308;12.178;2022-07-22T17:54:42;30.30;59.40
8736;DHT22;4404;49.308;12.178;2022-07-22T18:00:46;29.80;61.90
8736;DHT22;4404;49.308;12.178;2022-07-22T18:06:49;29.70;62.80
8736;DHT22;4404;49.308;12.178;2022-07-22T18:12:55;29.40;63.40
8736;DHT22;4404;49.308;12.178;2022-07-22T18:19:00;28.80;64.40
8736;DHT22;4404;49.308;12.178;2022-07-22T18:25:05;28.60;64.30
8736;DHT22;4404;49.308;12.178;2022-07-22T18:31:10;28.40;65.40
8736;DHT22;4404;49.308;12.178;2022-07-22T18:37:14;28.10;65.50
8736;DHT22;4404;49.308;12.178;2022-07-22T18:43:17;27.90;66.60
8736;DHT22;4404;49.308;12.178;2022-07-22T18:49:23;27.70;67.00
8736;DHT22;4404;49.308;12.178;2022-07-22T18:55:28;27.60;66.90
8736;DHT22;4404;49.308;12.178;2022-07-22T19:01:34;27.40;68.20
8736;DHT22;4404;49.308;12.178;2022-07-22T19:07:39;27.20;70.30
8736;DHT22;4404;49.308;12.178;2022-07-22T19:19:44;26.90;71.40
8736;DHT22;4404;49.308;12.178;2022-07-22T19:25:50;26.80;72.30
8736;DHT22;4404;49.308;12.178;2022-07-22T19:31:53;26.70;73.30
8736;DHT22;4404;49.308;12.178;2022-07-22T19:37:58;26.60;73.30
8736;DHT22;4404;49.308;12.178;2022-07-22T19:44:03;26.40;74.10
8736;DHT22;4404;49.308;12.178;2022-07-22T19:50:07;26.30;74.40
8736;DHT22;4404;49.308;12.178;2022-07-22T19:56:11;26.20;74.10
8736;DHT22;4404;49.308;12.178;2022-07-22T20:02:16;26.00;74.20
8736;DHT22;4404;49.308;12.178;2022-07-22T20:08:19;26.00;74.70
8736;DHT22;4404;49.308;12.178;2022-07-22T20:14:22;26.00;72.90
8736;DHT22;4404;49.308;12.178;2022-07-22T20:20:29;25.90;76.70
8736;DHT22;4404;49.308;12.178;2022-07-22T20:26:33;25.80;75.50
8736;DHT22;4404;49.308;12.178;2022-07-22T20:32:39;25.80;75.50
8736;DHT22;4404;49.308;12.178;2022-07-22T20:38:46;25.80;76.40
8736;DHT22;4404;49.308;12.178;2022-07-22T20:44:48;25.70;77.00
8736;DHT22;4404;49.308;12.178;2022-07-22T20:50:52;25.70;77.30
8736;DHT22;4404;49.308;12.178;2022-07-22T20:56:56;25.50;76.40
8736;DHT22;4404;49.308;12.178;2022-07-22T21:02:59;25.60;77.80
8736;DHT22;4404;49.308;12.178;2022-07-22T21:09:02;25.30;78.10
8736;DHT22;4404;49.308;12.178;2022-07-22T21:15:08;25.40;78.90
8736;DHT22;4404;49.308;12.178;2022-07-22T21:21:14;25.30;78.10
8736;DHT22;4404;49.308;12.178;2022-07-22T21:27:17;25.30;77.70
8736;DHT22;4404;49.308;12.178;2022-07-22T21:40:27;25.10;80.40
8736;DHT22;4404;49.308;12.178;2022-07-22T21:46:32;24.90;80.20
8736;DHT22;4404;49.308;12.178;2022-07-22T21:52:36;24.80;80.50
8736;DHT22;4404;49.308;12.178;2022-07-22T21:58:41;24.70;82.60
8736;DHT22;4404;49.308;12.178;2022-07-22T22:04:45;24.70;83.00
8736;DHT22;4404;49.308;12.178;2022-07-22T22:10:47;24.60;84.00
8736;DHT22;4404;49.308;12.178;2022-07-22T22:16:53;24.50;84.40
8736;DHT22;4404;49.308;12.178;2022-07-22T22:22:56;24.50;84.40
8736;DHT22;4404;49.308;12.178;2022-07-22T22:28:58;24.40;84.30
8736;DHT22;4404;49.308;12.178;2022-07-22T22:35:05;24.20;84.60
8736;DHT22;4404;49.308;12.178;2022-07-22T22:41:09;24.20;86.50
8736;DHT22;4404;49.308;12.178;2022-07-22T22:47:14;24.10;85.90
8736;DHT22;4404;49.308;12.178;2022-07-22T22:53:18;24.00;88.10
8736;DHT22;4404;49.308;12.178;2022-07-22T22:59:21;24.10;86.40
8736;DHT22;4404;49.308;12.178;2022-07-22T23:05:25;24.00;85.10
8736;DHT22;4404;49.308;12.178;2022-07-22T23:11:30;24.10;84.40
8736;DHT22;4404;49.308;12.178;2022-07-22T23:17:34;24.00;85.20
8736;DHT22;4404;49.308;12.178;2022-07-22T23:23:38;24.00;85.80
8736;DHT22;4404;49.308;12.178;2022-07-22T23:29:45;23.80;87.20
8736;DHT22;4404;49.308;12.178;2022-07-22T23:35:49;23.70;87.60
8736;DHT22;4404;49.308;12.178;2022-07-22T23:41:51;23.60;88.60
8736;DHT22;4404;49.308;12.178;2022-07-22T23:47:56;23.50;88.70
8736;DHT22;4404;49.308;12.178;2022-07-22T23:54:01;23.50;90.00
